createdAt,value
2018-07-28T00:01:38.508Z,6.90
2018-07-28T00:04:07.920Z,7.60
2018-07-28T00:06:37.160Z,6.73
2018-07-28T00:09:10.197Z,7.17
2018-07-28T00:11:39.613Z,7.10
2018-07-28T00:14:09.317Z,7.90
2018-07-28T00:16:39.384Z,8.00
2018-07-28T00:19:08.659Z,7.80
2018-07-28T00:21:38.075Z,8.83
2018-07-28T00:24:07.375Z,7.40
2018-07-28T00:26:36.839Z,7.60
2018-07-28T00:29:07.062Z,7.70
2018-07-28T00:31:36.162Z,8.03
2018-07-28T00:34:05.379Z,7.00
2018-07-28T00:36:35.270Z,7.03
2018-07-28T00:39:08.285Z,8.17
2018-07-28T00:41:37.493Z,7.70
2018-07-28T00:44:06.598Z,8.53
2018-07-28T00:46:35.784Z,7.63
2018-07-28T00:49:05.771Z,7.33
2018-07-28T00:51:35.185Z,6.63
2018-07-28T00:54:04.057Z,7.57
2018-07-28T00:56:33.583Z,8.10
2018-07-28T00:59:03.517Z,6.70
2018-07-28T01:01:33.035Z,6.10
2018-07-28T01:04:02.428Z,6.67
2018-07-28T01:06:31.718Z,6.33
2018-07-28T01:09:01.209Z,7.23
2018-07-28T01:11:30.735Z,6.93
2018-07-28T01:14:00.436Z,6.73
2018-07-28T01:16:29.612Z,7.40
2018-07-28T01:18:59.029Z,7.33
2018-07-28T01:21:28.308Z,8.27
2018-07-28T01:23:57.441Z,7.30
2018-07-28T01:26:26.704Z,6.93
2018-07-28T01:29:01.289Z,7.50
2018-07-28T01:31:30.391Z,7.50
2018-07-28T01:33:59.800Z,7.33
2018-07-28T01:36:28.889Z,7.20
2018-07-28T01:38:57.989Z,6.97
2018-07-28T01:41:27.440Z,6.97
2018-07-28T01:43:56.712Z,7.73
2018-07-28T01:46:25.900Z,7.17
2018-07-28T01:48:55.217Z,7.87
2018-07-28T01:51:24.342Z,6.80
2018-07-28T01:53:53.501Z,7.47
2018-07-28T01:56:22.832Z,6.60
2018-07-28T01:58:52.337Z,6.87
2018-07-28T02:01:21.549Z,6.83
2018-07-28T02:03:50.690Z,6.80
2018-07-28T02:06:20.085Z,6.90
2018-07-28T02:08:49.355Z,6.70
2018-07-28T02:11:18.144Z,6.97
2018-07-28T02:13:47.201Z,7.10
2018-07-28T02:16:16.864Z,6.83
2018-07-28T02:18:46.122Z,7.10
2018-07-28T02:21:15.191Z,9.03
2018-07-28T02:23:44.520Z,6.90
2018-07-28T02:26:13.304Z,7.83
2018-07-28T02:28:43.041Z,7.30
2018-07-28T02:31:12.213Z,6.83
2018-07-28T02:33:41.487Z,6.63
2018-07-28T02:36:10.745Z,7.53
2018-07-28T02:38:40.004Z,7.50
2018-07-28T02:41:09.182Z,7.20
2018-07-28T02:43:38.406Z,7.23
2018-07-28T02:46:08.595Z,7.90
2018-07-28T02:48:37.647Z,6.83
2018-07-28T02:51:06.941Z,8.07
2018-07-28T02:53:40.623Z,7.87
2018-07-28T02:56:10.418Z,7.93
2018-07-28T02:58:39.847Z,8.37
2018-07-28T03:01:09.442Z,7.70
2018-07-28T03:03:39.267Z,8.03
2018-07-28T03:06:08.567Z,7.17
2018-07-28T03:08:37.643Z,7.50
2018-07-28T03:11:07.038Z,7.33
2018-07-28T03:13:36.200Z,6.73
2018-07-28T03:16:12.456Z,7.20
2018-07-28T03:18:41.564Z,6.70
2018-07-28T03:21:10.653Z,7.10
2018-07-28T03:23:40.133Z,7.20
2018-07-28T03:26:09.696Z,7.00
2018-07-28T03:28:38.900Z,7.20
2018-07-28T03:31:08.337Z,7.03
2018-07-28T03:33:37.395Z,7.53
2018-07-28T03:36:06.706Z,6.90
2018-07-28T03:38:35.928Z,7.47
2018-07-28T03:41:05.103Z,7.53
2018-07-28T03:43:35.131Z,7.80
2018-07-28T03:46:04.396Z,7.77
2018-07-28T03:48:33.611Z,8.23
2018-07-28T03:51:03.451Z,8.30
2018-07-28T03:53:32.643Z,8.37
2018-07-28T03:56:01.754Z,9.53
2018-07-28T03:58:30.857Z,9.60
2018-07-28T04:01:00.845Z,10.83
2018-07-28T04:03:30.013Z,10.67
2018-07-28T04:05:59.199Z,11.40
2018-07-28T04:08:28.387Z,12.30
2018-07-28T04:10:57.677Z,12.77
2018-07-28T04:13:26.860Z,12.70
2018-07-28T04:15:56.155Z,12.40
2018-07-28T04:18:25.316Z,13.80
2018-07-28T04:20:54.841Z,12.90
2018-07-28T04:23:24.043Z,13.73
2018-07-28T04:25:53.416Z,13.07
2018-07-28T04:28:22.604Z,12.10
2018-07-28T04:30:53.093Z,11.90
2018-07-28T04:33:23.288Z,11.40
2018-07-28T04:35:53.380Z,11.87
2018-07-28T04:38:23.276Z,12.63
2018-07-28T04:40:52.390Z,12.13
2018-07-28T04:43:21.583Z,11.57
2018-07-28T04:45:50.853Z,12.23
2018-07-28T04:48:19.923Z,13.03
2018-07-28T04:50:49.175Z,12.70
2018-07-28T04:53:18.521Z,12.43
2018-07-28T04:55:47.938Z,12.03
2018-07-28T04:58:17.130Z,11.37
2018-07-28T05:00:46.222Z,11.20
2018-07-28T05:03:15.400Z,11.47
2018-07-28T05:05:44.590Z,12.27
2018-07-28T05:08:13.826Z,12.43
2018-07-28T05:10:42.988Z,15.23
2018-07-28T05:13:12.124Z,14.80
2018-07-28T05:15:42.007Z,14.23
2018-07-28T05:18:11.306Z,14.87
2018-07-28T05:20:40.501Z,14.17
2018-07-28T05:23:09.709Z,15.67
2018-07-28T05:25:38.900Z,14.57
2018-07-28T05:28:08.149Z,14.63
2018-07-28T05:30:37.400Z,14.17
2018-07-28T05:33:06.665Z,15.60
2018-07-28T05:35:35.931Z,14.70
2018-07-28T05:38:06.352Z,17.20
2018-07-28T05:40:35.539Z,17.13
2018-07-28T05:43:04.756Z,16.50
2018-07-28T05:45:34.055Z,16.57
2018-07-28T05:48:02.813Z,15.67
2018-07-28T05:50:31.808Z,15.57
2018-07-28T05:53:01.461Z,15.30
2018-07-28T05:55:30.721Z,15.17
2018-07-28T05:57:59.876Z,15.30
2018-07-28T06:00:28.985Z,15.27
2018-07-28T06:02:58.420Z,15.60
2018-07-28T06:05:28.050Z,14.43
2018-07-28T06:07:57.272Z,14.30
2018-07-28T06:10:26.422Z,13.23
2018-07-28T06:12:55.487Z,13.57
2018-07-28T06:15:25.013Z,13.17
2018-07-28T06:17:54.773Z,13.23
2018-07-28T06:20:23.905Z,12.97
2018-07-28T06:22:52.957Z,13.53
2018-07-28T06:25:22.196Z,11.70
2018-07-28T06:27:51.464Z,12.97
2018-07-28T06:30:20.812Z,12.30
2018-07-28T06:32:49.933Z,11.13
2018-07-28T06:35:19.140Z,12.47
2018-07-28T06:37:49.208Z,12.33
2018-07-28T06:40:18.349Z,12.20
2018-07-28T06:42:47.567Z,11.80
2018-07-28T06:45:16.721Z,12.20
2018-07-28T06:47:46.245Z,13.27
2018-07-28T06:50:15.331Z,12.27
2018-07-28T06:52:44.310Z,11.43
2018-07-28T06:55:13.652Z,12.20
2018-07-28T06:57:42.779Z,11.70
2018-07-28T07:00:12.043Z,13.00
2018-07-28T07:02:41.113Z,12.83
2018-07-28T07:05:10.647Z,12.03
2018-07-28T07:07:39.718Z,12.03
2018-07-28T07:10:09.553Z,12.63
2018-07-28T07:12:38.778Z,12.37
2018-07-28T07:15:09.424Z,13.10
2018-07-28T07:17:38.767Z,11.73
2018-07-28T07:20:08.573Z,11.60
2018-07-28T07:22:37.983Z,11.90
2018-07-28T07:25:07.155Z,9.90
2018-07-28T07:27:36.249Z,9.43
2018-07-28T07:30:07.615Z,11.30
2018-07-28T07:32:37.435Z,9.83
2018-07-28T07:35:06.695Z,10.33
2018-07-28T07:37:36.249Z,8.43
2018-07-28T07:40:06.306Z,9.43
2018-07-28T07:42:35.448Z,9.67
2018-07-28T07:45:04.821Z,9.23
2018-07-28T07:47:34.922Z,8.40
2018-07-28T07:50:04.011Z,9.27
2018-07-28T07:52:33.161Z,9.00
2018-07-28T07:55:02.469Z,9.20
2018-07-28T07:57:31.587Z,9.73
2018-07-28T08:00:00.668Z,9.07
2018-07-28T08:02:29.755Z,9.57
2018-07-28T08:04:59.218Z,9.10
2018-07-28T08:07:28.302Z,11.17
2018-07-28T08:09:57.443Z,11.37
2018-07-28T08:12:27.018Z,12.03
2018-07-28T08:14:56.161Z,11.57
2018-07-28T08:17:25.972Z,12.40
2018-07-28T08:19:55.858Z,11.87
2018-07-28T08:22:28.161Z,11.63
2018-07-28T08:24:57.374Z,13.47
2018-07-28T08:27:26.452Z,12.30
2018-07-28T08:29:56.536Z,12.00
2018-07-28T08:32:25.671Z,11.27
2018-07-28T08:34:54.964Z,11.10
2018-07-28T08:37:25.772Z,10.97
2018-07-28T08:39:55.231Z,10.10
2018-07-28T08:42:25.733Z,11.73
2018-07-28T08:44:54.678Z,10.93
2018-07-28T08:47:23.803Z,9.83
2018-07-28T08:49:52.891Z,9.93
2018-07-28T08:52:22.801Z,9.50
2018-07-28T08:54:51.857Z,9.33
2018-07-28T08:57:20.706Z,9.53
2018-07-28T08:59:49.703Z,8.27
2018-07-28T09:02:18.774Z,9.03
2018-07-28T09:04:48.515Z,8.93
2018-07-28T09:07:17.703Z,9.40
2018-07-28T09:09:47.038Z,9.03
2018-07-28T09:12:16.355Z,9.70
2018-07-28T09:14:45.860Z,8.27
2018-07-28T09:17:14.961Z,9.40
2018-07-28T09:19:44.120Z,9.47
2018-07-28T09:22:14.713Z,9.00
2018-07-28T09:24:43.771Z,8.13
2018-07-28T09:27:12.874Z,7.60
2018-07-28T09:29:42.228Z,7.70
2018-07-28T09:32:11.571Z,7.60
2018-07-28T09:34:40.711Z,7.70
2018-07-28T09:37:09.813Z,8.10
2018-07-28T09:39:55.619Z,7.60
2018-07-28T09:45:23.671Z,7.83
2018-07-28T09:47:53.112Z,7.50
2018-07-28T09:50:23.424Z,8.43
2018-07-28T09:52:52.699Z,7.67
2018-07-28T09:55:22.521Z,7.83
2018-07-28T09:57:52.097Z,7.33
2018-07-28T10:00:26.771Z,7.33
2018-07-28T10:02:56.203Z,7.13
2018-07-28T10:05:25.477Z,6.47
2018-07-28T10:07:54.890Z,7.03
2018-07-28T10:10:24.224Z,6.53
2018-07-28T10:12:53.491Z,5.93
2018-07-28T10:15:22.594Z,6.53
2018-07-28T10:17:52.067Z,6.63
2018-07-28T10:20:21.298Z,6.10
2018-07-28T10:22:51.128Z,7.05
2018-07-28T10:25:23.188Z,6.22
2018-07-28T10:27:52.605Z,5.92
2018-07-28T10:30:21.760Z,6.30
2018-07-28T10:32:50.942Z,5.97
2018-07-28T10:35:20.161Z,6.10
2018-07-28T10:37:49.433Z,5.90
2018-07-28T10:40:18.703Z,5.92
2018-07-28T10:42:48.081Z,6.00
2018-07-28T10:45:17.366Z,6.25
2018-07-28T10:47:46.581Z,6.00
2018-07-28T10:50:16.021Z,6.50
2018-07-28T10:52:45.218Z,6.60
2018-07-28T10:55:14.575Z,6.40
2018-07-28T10:57:43.994Z,6.07
2018-07-28T11:00:13.570Z,6.23
2018-07-28T11:02:42.751Z,6.00
2018-07-28T11:05:12.596Z,6.20
2018-07-28T11:07:42.032Z,6.30
2018-07-28T11:10:11.907Z,8.30
2018-07-28T11:12:41.214Z,5.80
2018-07-28T11:15:10.491Z,5.23
2018-07-28T11:17:40.667Z,6.30
2018-07-28T11:20:11.177Z,5.10
2018-07-28T11:22:40.257Z,4.50
2018-07-28T11:25:09.830Z,4.33
2018-07-28T11:27:39.364Z,4.00
2018-07-28T11:30:09.893Z,4.40
2018-07-28T11:32:44.397Z,4.07
2018-07-28T11:35:24.653Z,4.62
2018-07-28T11:38:36.775Z,3.30
2018-07-28T11:41:17.052Z,3.60
2018-07-28T11:43:51.960Z,4.65
2018-07-28T11:46:21.399Z,3.98
2018-07-28T11:48:50.818Z,4.35
2018-07-28T11:51:20.383Z,3.95
2018-07-28T11:53:49.749Z,3.33
2018-07-28T11:56:19.163Z,3.05
2018-07-28T11:58:48.345Z,3.83
2018-07-28T12:01:17.924Z,6.72
2018-07-28T12:03:47.750Z,3.20
2018-07-28T12:06:17.295Z,3.17
2018-07-28T12:08:47.302Z,4.95
2018-07-28T12:11:16.770Z,3.60
2018-07-28T12:13:46.152Z,3.50
2018-07-28T12:16:15.455Z,3.52
2018-07-28T12:18:44.553Z,6.33
2018-07-28T12:21:13.653Z,3.35
2018-07-28T12:23:43.114Z,3.47
2018-07-28T12:26:13.136Z,2.90
2018-07-28T12:28:42.195Z,3.42
2018-07-28T12:31:11.349Z,4.85
2018-07-28T12:33:40.590Z,3.45
2018-07-28T12:36:10.169Z,5.70
2018-07-28T12:38:39.490Z,4.70
2018-07-28T12:41:10.150Z,6.87
2018-07-28T12:43:39.179Z,3.77
2018-07-28T12:46:08.267Z,3.92
2018-07-28T12:48:37.683Z,5.65
2018-07-28T12:51:07.600Z,7.40
2018-07-28T12:53:36.723Z,7.05
2018-07-28T12:56:06.254Z,4.05
2018-07-28T12:58:35.476Z,4.70
2018-07-28T13:01:05.029Z,4.67
2018-07-28T13:03:34.609Z,4.60
2018-07-28T13:06:04.474Z,4.30
2018-07-28T13:08:33.692Z,4.55
2018-07-28T13:11:03.111Z,3.67
2018-07-28T13:13:33.003Z,3.55
2018-07-28T13:16:02.696Z,3.87
2018-07-28T13:18:32.243Z,6.03
2018-07-28T13:21:01.514Z,3.83
2018-07-28T13:23:30.697Z,5.43
2018-07-28T13:26:00.144Z,3.55
2018-07-28T13:28:29.491Z,6.97
2018-07-28T13:30:58.877Z,4.67
2018-07-28T13:33:28.149Z,6.47
2018-07-28T13:35:57.751Z,4.67
2018-07-28T13:38:26.902Z,4.65
2018-07-28T13:40:57.826Z,4.65
2018-07-28T13:43:26.983Z,6.60
2018-07-28T13:45:56.200Z,7.90
2018-07-28T13:48:25.400Z,7.55
2018-07-28T13:50:54.833Z,8.78
2018-07-28T13:53:23.761Z,7.20
2018-07-28T13:55:52.889Z,8.40
2018-07-28T13:58:22.155Z,9.73
2018-07-28T14:00:51.303Z,5.78
2018-07-28T14:03:20.172Z,9.37
2018-07-28T14:05:49.509Z,5.80
2018-07-28T14:08:19.608Z,5.50
2018-07-28T14:10:48.826Z,7.77
2018-07-28T14:13:18.257Z,7.45
2018-07-28T14:15:47.953Z,7.60
2018-07-28T14:18:17.295Z,7.60
2018-07-28T14:20:47.214Z,6.20
2018-07-28T14:23:17.178Z,8.00
2018-07-28T14:25:46.765Z,9.58
2018-07-28T14:28:16.401Z,6.67
2018-07-28T14:30:46.230Z,8.65
2018-07-28T14:33:15.655Z,5.85
2018-07-28T14:35:44.925Z,7.58
2018-07-28T14:38:14.318Z,7.50
2018-07-28T14:40:43.535Z,8.43
2018-07-28T14:43:12.990Z,10.20
2018-07-28T14:45:42.981Z,7.35
2018-07-28T14:48:12.645Z,6.37
2018-07-28T14:50:41.952Z,6.40
2018-07-28T14:53:11.387Z,6.22
2018-07-28T14:55:40.939Z,7.90
2018-07-28T14:58:10.805Z,5.60
2018-07-28T15:00:39.867Z,6.03
2018-07-28T15:03:09.124Z,5.12
2018-07-28T15:05:38.199Z,9.80
2018-07-28T15:08:07.711Z,8.80
2018-07-28T15:10:37.058Z,6.08
2018-07-28T15:13:06.213Z,6.87
2018-07-28T15:15:35.358Z,7.20
2018-07-28T15:18:05.016Z,6.37
2018-07-28T15:20:34.197Z,6.03
2018-07-28T15:23:03.362Z,6.37
2018-07-28T15:25:33.529Z,7.70
2018-07-28T15:28:02.770Z,6.72
2018-07-28T15:30:32.469Z,6.10
2018-07-28T15:33:01.536Z,6.17
2018-07-28T15:35:30.825Z,7.47
2018-07-28T15:38:00.150Z,6.65
2018-07-28T15:40:29.229Z,5.83
2018-07-28T15:42:58.436Z,7.30
2018-07-28T15:45:27.655Z,5.20
2018-07-28T15:47:57.080Z,7.10
2018-07-28T15:50:26.128Z,5.33
2018-07-28T15:52:55.728Z,8.20
2018-07-28T15:55:24.916Z,6.90
2018-07-28T15:57:54.900Z,8.78
2018-07-28T16:00:24.030Z,6.17
2018-07-28T16:02:53.275Z,7.65
2018-07-28T16:05:22.841Z,7.72
2018-07-28T16:07:52.077Z,7.05
2018-07-28T16:10:21.206Z,6.45
2018-07-28T16:12:51.152Z,8.93
2018-07-28T16:15:20.469Z,7.40
2018-07-28T16:17:49.907Z,5.15
2018-07-28T16:20:19.772Z,5.53
2018-07-28T16:22:49.257Z,5.20
2018-07-28T16:25:19.812Z,6.80
2018-07-28T16:27:49.288Z,5.67
2018-07-28T16:30:18.714Z,5.83
2018-07-28T16:32:48.150Z,6.37
2018-07-28T16:35:17.359Z,10.65
2018-07-28T16:37:47.001Z,8.80
2018-07-28T16:40:17.331Z,6.80
2018-07-28T16:42:47.157Z,5.78
2018-07-28T16:45:16.385Z,6.10
2018-07-28T16:47:45.561Z,6.55
2018-07-28T16:50:14.880Z,5.65
2018-07-28T16:52:44.037Z,6.10
2018-07-28T16:55:13.297Z,5.45
2018-07-28T16:57:42.372Z,5.62
2018-07-28T17:00:11.604Z,7.25
2018-07-28T17:02:41.650Z,6.05
2018-07-28T17:05:10.994Z,4.80
2018-07-28T17:07:40.095Z,5.83
2018-07-28T17:10:09.110Z,4.83
2018-07-28T17:12:38.352Z,5.10
2018-07-28T17:15:08.607Z,4.92
2018-07-28T17:17:37.905Z,4.92
2018-07-28T17:20:07.911Z,4.28
2018-07-28T17:22:37.722Z,5.70
2018-07-28T17:25:06.833Z,5.90
2018-07-28T17:27:35.602Z,7.20
2018-07-28T17:30:04.799Z,5.47
2018-07-28T17:32:34.960Z,4.67
2018-07-28T17:35:04.331Z,7.45
2018-07-28T17:37:33.813Z,4.83
2018-07-28T17:40:03.576Z,6.17
2018-07-28T17:42:32.839Z,5.97
2018-07-28T17:45:03.055Z,4.53
2018-07-28T17:47:32.430Z,4.83
2018-07-28T17:50:01.731Z,5.50
2018-07-28T17:52:30.965Z,5.72
2018-07-28T17:55:00.161Z,4.70
2018-07-28T17:57:29.521Z,5.70
2018-07-28T17:59:58.787Z,4.55
2018-07-28T18:02:28.393Z,5.10
2018-07-28T18:04:57.671Z,6.20
2018-07-28T18:07:26.892Z,5.17
2018-07-28T18:09:56.395Z,4.50
2018-07-28T18:12:25.576Z,6.57
2018-07-28T18:14:55.815Z,4.10
2018-07-28T18:17:24.743Z,4.77
2018-07-28T18:19:53.987Z,6.90
2018-07-28T18:22:23.131Z,7.53
2018-07-28T18:24:52.376Z,6.00
2018-07-28T18:27:21.652Z,6.67
2018-07-28T18:29:50.814Z,4.30
2018-07-28T18:32:19.988Z,5.43
2018-07-28T18:34:49.239Z,6.03
2018-07-28T18:37:18.616Z,5.73
2018-07-28T18:39:47.790Z,3.40
2018-07-28T18:42:17.054Z,4.43
2018-07-28T18:44:46.707Z,6.00
2018-07-28T18:47:16.690Z,4.27
2018-07-28T18:49:46.376Z,5.30
2018-07-28T18:52:15.644Z,4.47
2018-07-28T18:54:44.432Z,4.83
2018-07-28T18:57:13.638Z,5.77
2018-07-28T18:59:42.907Z,5.43
2018-07-28T19:02:12.426Z,6.00
2018-07-28T19:04:41.588Z,4.83
2018-07-28T19:07:11.318Z,6.67
2018-07-28T19:09:46.852Z,4.93
2018-07-28T19:12:16.090Z,4.90
2018-07-28T19:14:45.096Z,5.90
2018-07-28T19:17:14.233Z,4.63
2018-07-28T19:19:43.292Z,4.13
2018-07-28T19:22:18.270Z,3.97
2018-07-28T19:24:48.539Z,6.57
2018-07-28T19:27:17.794Z,3.73
2018-07-28T19:29:46.847Z,6.67
2018-07-28T19:32:16.392Z,5.30
2018-07-28T19:34:45.516Z,5.03
2018-07-28T19:37:19.659Z,6.60
2018-07-28T19:39:48.996Z,6.50
2018-07-28T19:42:23.581Z,3.40
2018-07-28T19:44:53.606Z,5.27
2018-07-28T19:47:22.958Z,5.37
2018-07-28T19:49:52.001Z,5.90
2018-07-28T19:52:21.326Z,4.33
2018-07-28T19:54:51.579Z,5.47
2018-07-28T19:57:20.610Z,5.33
2018-07-28T19:59:49.834Z,5.60
2018-07-28T20:02:18.999Z,5.10
2018-07-28T20:04:47.853Z,4.80
2018-07-28T20:07:17.412Z,4.40
2018-07-28T20:09:46.931Z,3.87
2018-07-28T20:12:16.297Z,6.37
2018-07-28T20:14:45.690Z,6.00
2018-07-28T20:17:14.955Z,4.13
2018-07-28T20:19:44.329Z,5.53
2018-07-28T20:22:13.447Z,3.97
2018-07-28T20:24:42.581Z,7.17
2018-07-28T20:27:11.680Z,6.67
2018-07-28T20:29:40.875Z,4.03
2018-07-28T20:32:10.092Z,4.60
2018-07-28T20:34:40.104Z,5.30
2018-07-28T20:37:10.071Z,5.67
2018-07-28T20:39:39.230Z,5.83
2018-07-28T20:42:08.292Z,5.43
2018-07-28T20:44:38.373Z,6.03
2018-07-28T20:47:09.449Z,5.33
2018-07-28T20:49:39.396Z,4.60
2018-07-28T20:52:09.181Z,4.30
2018-07-28T20:54:38.626Z,7.27
2018-07-28T20:57:07.825Z,5.40
2018-07-28T20:59:37.080Z,4.00
2018-07-28T21:02:06.385Z,7.53
2018-07-28T21:04:35.481Z,3.63
2018-07-28T21:07:04.823Z,5.80
2018-07-28T21:09:34.516Z,6.60
2018-07-28T21:12:03.780Z,5.17
2018-07-28T21:14:33.673Z,6.87
2018-07-28T21:17:02.805Z,4.40
2018-07-28T21:19:32.265Z,4.00
2018-07-28T21:22:01.389Z,4.13
2018-07-28T21:24:30.631Z,6.23
2018-07-28T21:26:59.798Z,4.77
2018-07-28T21:29:29.343Z,4.83
2018-07-28T21:31:59.246Z,6.07
2018-07-28T21:34:28.309Z,4.53
2018-07-28T21:36:57.582Z,5.70
2018-07-28T21:39:27.058Z,4.33
2018-07-28T21:41:56.100Z,4.50
2018-07-28T21:44:26.045Z,7.07
2018-07-28T21:46:55.306Z,5.07
2018-07-28T21:49:24.718Z,4.60
2018-07-28T21:51:54.066Z,4.23
2018-07-28T21:54:27.475Z,5.17
2018-07-28T21:56:56.907Z,4.27
2018-07-28T21:59:26.818Z,4.33
2018-07-28T22:01:56.039Z,4.17
2018-07-28T22:04:26.501Z,5.17
2018-07-28T22:06:55.870Z,5.77
2018-07-28T22:09:25.025Z,6.50
2018-07-28T22:11:54.269Z,4.53
2018-07-28T22:14:23.433Z,5.07
2018-07-28T22:16:53.275Z,4.47
2018-07-28T22:19:22.665Z,5.80
2018-07-28T22:21:51.848Z,3.50
2018-07-28T22:24:21.182Z,5.20
2018-07-28T22:26:50.392Z,5.47
2018-07-28T22:29:19.841Z,6.60
2018-07-28T22:31:48.941Z,5.00
2018-07-28T22:34:17.954Z,6.60
2018-07-28T22:36:47.057Z,6.00
2018-07-28T22:39:16.870Z,5.23
2018-07-28T22:41:46.076Z,5.03
2018-07-28T22:44:15.276Z,4.00
2018-07-28T22:46:44.473Z,5.37
2018-07-28T22:49:13.656Z,5.77
2018-07-28T22:51:42.756Z,4.67
2018-07-28T22:54:11.836Z,4.67
2018-07-28T22:56:41.152Z,5.90
2018-07-28T22:59:10.528Z,5.40
2018-07-28T23:01:39.804Z,6.43
2018-07-28T23:04:08.860Z,6.43
2018-07-28T23:06:38.266Z,6.30
2018-07-28T23:09:10.301Z,4.83
2018-07-28T23:11:39.924Z,6.87
2018-07-28T23:14:10.413Z,4.47
2018-07-28T23:16:40.292Z,5.77
2018-07-28T23:19:09.458Z,4.50
2018-07-28T23:21:38.670Z,3.13
2018-07-28T23:24:07.817Z,5.97
2018-07-28T23:26:37.143Z,3.73
2018-07-28T23:29:06.792Z,5.80
2018-07-28T23:31:37.207Z,5.20
2018-07-28T23:34:06.375Z,6.80
2018-07-28T23:36:35.683Z,4.37
2018-07-28T23:39:07.448Z,7.43
2018-07-28T23:41:36.804Z,5.10
2018-07-28T23:44:05.936Z,3.27
2018-07-28T23:46:35.171Z,5.10
2018-07-28T23:49:04.660Z,5.23
2018-07-28T23:51:34.587Z,5.90
2018-07-28T23:54:04.263Z,3.80
2018-07-28T23:56:33.485Z,4.43
2018-07-28T23:59:02.552Z,4.73
